Time;durP1;ratioP1;P1;durP2;ratioP2;P2;SDS_P1;SDS_P2;PMS_P1;PMS_P2;Temp;Humidity;BMP_temperature;BMP_pressure;BME280_temperature;BME280_humidity;BME280_pressure;Samples;Min_cycle;Max_cycle;Signal;HPM_P1;HPM_P2
2022/12/17 13:06:53;;;;;;;102.30;33.42;;;;;;;-3.46;100.00;102455.56;2052179;28;40986;-76
2022/12/17 13:08:07;;;;;;;115.45;33.83;;;;;;;-3.47;100.00;102453.75;2046857;28;37589;-70
2022/12/17 13:09:14;;;;;;;119.88;35.58;;;;;;;-3.54;100.00;102457.72;2041858;28;25407;-72
2022/12/17 13:10:30;;;;;;;118.47;37.13;;;;;;;-3.54;100.00;102462.94;2050115;28;42617;-72
2022/12/17 13:11:39;;;;;;;120.18;35.08;;;;;;;-3.54;100.00;102468.19;2054797;28;35405;-71
2022/12/17 13:12:46;;;;;;;112.50;34.55;;;;;;;-3.56;100.00;102475.03;2053950;28;39089;-71
2022/12/17 13:13:54;;;;;;;111.88;33.75;;;;;;;-3.53;100.00;102464.75;2054360;28;38107;-73
2022/12/17 13:15:05;;;;;;;113.10;33.63;;;;;;;-3.48;100.00;102457.19;2046723;28;42789;-72
2022/12/17 13:16:49;;;;;;;118.00;36.08;;;;;;;-3.50;100.00;102467.56;2048559;28;39279;-72
2022/12/17 13:18:22;;;;;;;107.43;32.75;;;;;;;-3.49;100.00;102448.41;2054589;28;38298;-73
2022/12/17 13:19:32;;;;;;;103.72;33.35;;;;;;;-3.52;100.00;102443.00;2046500;28;39410;-73
2022/12/17 13:20:34;;;;;;;;;;;;;;;-3.48;100.00;102450.22;2050560;28;39181;-68
2022/12/17 13:21:38;;;;;;;103.38;29.25;;;;;;;-3.48;100.00;102450.22;2055456;28;40099;-72
2022/12/17 13:23:03;;;;;;;104.72;35.85;;;;;;;-3.49;100.00;102451.03;2054524;28;42838;-67
2022/12/17 13:24:21;;;;;;;110.35;35.28;;;;;;;-3.41;100.00;102450.56;2055164;28;26660;-71
2022/12/17 13:25:23;;;;;;;122.50;35.38;;;;;;;-3.41;100.00;102447.97;2055795;28;37588;-72
2022/12/17 13:26:43;;;;;;;110.65;34.97;;;;;;;-3.39;100.00;102442.00;2055168;28;40049;-72
2022/12/17 13:27:46;;;;;;;126.60;36.53;;;;;;;-3.35;100.00;102443.09;2055541;28;39410;-73
2022/12/17 13:28:54;;;;;;;117.82;37.80;;;;;;;-3.31;100.00;102445.97;2054907;28;38492;-70
2022/12/17 13:30:17;;;;;;;123.57;38.97;;;;;;;-3.27;100.00;102449.66;2054578;28;42057;-72
2022/12/17 13:31:25;;;;;;;121.95;35.22;;;;;;;-3.23;100.00;102438.56;2046764;28;36660;-72
2022/12/17 13:32:44;;;;;;;122.32;36.60;;;;;;;-3.26;100.00;102436.66;2050721;28;41310;-72
2022/12/17 13:34:39;;;;;;;117.90;34.70;;;;;;;-3.28;100.00;102434.78;2054674;28;38594;-71
2022/12/17 13:36:06;;;;;;;118.57;34.30;;;;;;;-3.26;100.00;102434.03;2055727;28;38936;-72
2022/12/17 13:37:31;;;;;;;109.43;32.42;;;;;;;-3.27;100.00;102437.50;2050453;28;20043;-71
2022/12/17 13:39:18;;;;;;;114.47;34.40;;;;;;;-3.31;100.00;102437.22;2054361;28;39123;-73
2022/12/17 13:40:42;;;;;;;116.22;35.10;;;;;;;-3.29;100.00;102440.81;2055752;28;26741;-70
2022/12/17 13:41:55;;;;;;;113.18;34.22;;;;;;;-3.31;100.00;102438.09;2047177;28;20861;-69
2022/12/17 13:42:58;;;;;;;109.60;34.13;;;;;;;-3.23;100.00;102438.56;2039355;29;21105;-70
2022/12/17 13:44:15;;;;;;;121.60;36.65;;;;;;;-3.24;100.00;102433.25;2040431;28;23068;-70
2022/12/17 13:45:23;;;;;;;110.20;33.55;;;;;;;-3.32;100.00;102438.00;2039564;29;20056;-69
2022/12/17 13:46:46;;;;;;;110.55;35.03;;;;;;;-3.37;100.00;102436.88;2034219;29;21371;-70
2022/12/17 13:47:58;;;;;;;120.88;36.10;;;;;;;-3.41;100.00;102447.97;2042059;28;20043;-69
2022/12/17 13:49:15;;;;;;;118.65;35.45;;;;;;;-3.40;100.00;102437.56;2039002;29;20379;-69
2022/12/17 13:50:29;;;;;;;117.57;35.58;;;;;;;-3.37;100.00;102448.25;2041979;28;20171;-69
2022/12/17 13:51:36;;;;;;;109.65;33.40;;;;;;;-3.33;100.00;102438.84;2047098;28;20028;-69
2022/12/17 13:52:40;;;;;;;110.88;35.38;;;;;;;-3.24;100.00;102434.13;2039259;29;20100;-70
2022/12/17 13:53:57;;;;;;;115.80;33.88;;;;;;;-3.20;100.00;102441.34;2040134;28;20918;-69
2022/12/17 13:55:18;;;;;;;127.30;36.53;;;;;;;-3.23;100.00;102449.03;2047303;28;20039;-70
2022/12/17 13:56:27;;;;;;;110.25;34.42;;;;;;;-3.17;100.00;102456.34;2039108;29;20040;-71
2022/12/17 13:57:30;;;;;;;106.28;35.38;;;;;;;-3.20;100.00;102459.69;2042250;28;20153;-70
2022/12/17 13:58:32;;;;;;;106.03;34.83;;;;;;;-3.16;100.00;102466.00;2047131;28;40156;-71
2022/12/17 13:59:34;;;;;;;111.28;36.38;;;;;;;-3.15;100.00;102463.47;2050429;28;26201;-71
2022/12/17 14:00:36;;;;;;;117.50;36.50;;;;;;;-3.15;100.00;102460.84;2055928;28;22631;-71
2022/12/17 14:01:47;;;;;;;116.05;38.20;;;;;;;-3.19;100.00;102468.47;2054718;28;39479;-73
2022/12/17 14:02:49;;;;;;;116.32;34.60;;;;;;;-3.19;100.00;102471.09;2055403;28;39997;-71
2022/12/17 14:03:56;;;;;;;115.25;37.55;;;;;;;-3.24;100.00;102476.03;2055484;28;20165;-70
2022/12/17 14:05:37;;;;;;;112.35;35.10;;;;;;;-3.27;100.00;102475.84;2055503;28;41922;-70
2022/12/17 14:06:41;;;;;;;103.50;33.40;;;;;;;-3.31;100.00;102466.03;2047314;28;20036;-71
2022/12/17 14:07:42;;;;;;;103.55;34.67;;;;;;;-3.33;100.00;102462.41;2050495;28;41098;-71
2022/12/17 14:08:46;;;;;;;110.85;35.05;;;;;;;-3.35;100.00;102470.19;2047016;28;20194;-70
2022/12/17 14:09:48;;;;;;;121.18;36.83;;;;;;;-3.34;100.00;102473.69;2046917;28;39764;-70
2022/12/17 14:12:20;;;;;;;106.90;35.80;;;;;;;-3.39;100.00;102467.28;2055165;28;26506;-71
2022/12/17 14:12:20;;;;;;;112.80;33.65;;;;;;;-3.42;100.00;102464.50;2055557;28;21226;-71
2022/12/17 14:13:22;;;;;;;101.57;34.03;;;;;;;-3.43;100.00;102460.97;2046572;28;41358;-71
2022/12/17 14:14:47;;;;;;;110.68;33.80;;;;;;;-3.47;100.00;102470.34;2039213;28;34618;-71
2022/12/17 14:15:51;;;;;;;118.70;36.65;;;;;;;-3.50;100.00;102470.19;2050463;28;20083;-71
2022/12/17 14:16:56;;;;;;;108.68;34.20;;;;;;;-3.47;100.00;102464.22;2047128;28;24518;-70
2022/12/17 14:17:59;;;;;;;116.95;35.35;;;;;;;-3.47;100.00;102462.50;2047421;28;35583;-70
2022/12/17 14:19:01;;;;;;;126.60;36.00;;;;;;;-3.45;100.00;102470.44;2046105;28;42089;-69
2022/12/17 14:20:15;;;;;;;122.10;37.85;;;;;;;-3.43;100.00;102473.16;2038860;28;37449;-71
2022/12/17 14:21:19;;;;;;;111.38;35.45;;;;;;;-3.47;100.00;102469.44;2048715;28;36321;-71
2022/12/17 14:22:32;;;;;;;117.85;36.67;;;;;;;-3.49;100.00;102471.97;2037722;29;40644;-70
2022/12/17 14:23:34;;;;;;;130.00;35.70;;;;;;;-3.45;100.00;102462.59;2033193;29;20861;-70
2022/12/17 14:24:35;;;;;;;121.85;36.13;;;;;;;-3.46;100.00;102472.16;2038106;29;41915;-70
2022/12/17 14:25:42;;;;;;;123.95;37.97;;;;;;;-3.47;100.00;102466.84;2038845;28;37790;-70
2022/12/17 14:26:52;;;;;;;115.30;37.38;;;;;;;-3.48;100.00;102473.78;2038280;29;34908;-70
2022/12/17 14:28:03;;;;;;;120.18;38.35;;;;;;;-3.51;100.00;102476.22;2040202;28;20050;-69
2022/12/17 14:29:13;;;;;;;120.88;36.67;;;;;;;-3.50;100.00;102472.81;2054712;28;29681;-69
2022/12/17 14:30:37;;;;;;;123.45;38.53;;;;;;;-3.51;100.00;102476.22;2055436;28;20169;-69
2022/12/17 14:32:02;;;;;;;120.07;36.42;;;;;;;-3.53;100.00;102475.22;2055735;28;20043;-70
2022/12/17 14:33:24;;;;;;;114.18;34.15;;;;;;;-3.50;100.00;102470.19;2054437;28;40294;-69
2022/12/17 14:34:26;;;;;;;116.55;35.28;;;;;;;-3.47;100.00;102479.94;2056006;28;22056;-70
2022/12/17 14:35:38;;;;;;;117.95;36.95;;;;;;;-3.46;100.00;102476.50;2046313;28;41054;-71
2022/12/17 14:36:42;;;;;;;118.43;38.30;;;;;;;-3.46;100.00;102482.63;2048336;28;38233;-71
2022/12/17 14:37:46;;;;;;;128.38;38.00;;;;;;;-3.43;100.00;102475.78;2055333;28;35531;-70
2022/12/17 14:39:09;;;;;;;134.50;39.53;;;;;;;-3.43;100.00;102478.38;2055181;28;35430;-71
2022/12/17 14:40:14;;;;;;;120.00;36.78;;;;;;;-3.46;100.00;102466.94;2046778;28;41752;-70
2022/12/17 14:42:37;;;;;;;123.30;36.58;;;;;;;-3.43;100.00;102470.53;2010592;29;39275;-71
2022/12/17 14:43:39;;;;;;;117.53;37.22;;;;;;;-3.42;100.00;102477.59;2039735;28;43865;-70
2022/12/17 14:44:52;;;;;;;136.23;39.67;;;;;;;-3.45;100.00;102480.91;2039499;28;33922;-71
2022/12/17 14:47:33;;;;;;;112.57;35.25;;;;;;;-3.57;100.00;102483.72;2050080;28;40981;-71
2022/12/17 14:50:22;;;;;;;119.90;37.22;;;;;;;-3.57;100.00;102493.28;2055643;28;20079;-71
2022/12/17 14:51:37;;;;;;;125.90;37.83;;;;;;;-3.57;100.00;102494.19;2054980;28;20852;-70
2022/12/17 14:52:42;;;;;;;128.60;39.38;;;;;;;-3.60;100.00;102496.63;2045773;28;42009;-71
2022/12/17 14:53:44;;;;;;;124.05;39.90;;;;;;;-3.61;100.00;102494.81;2048403;28;38141;-71
2022/12/17 14:54:46;;;;;;;133.90;40.10;;;;;;;-3.55;100.00;102495.19;2055261;28;37389;-71
2022/12/17 14:55:53;;;;;;;122.05;39.17;;;;;;;-3.57;100.00;102488.03;2054663;28;40773;-70
2022/12/17 14:56:58;;;;;;;133.30;39.90;;;;;;;-3.55;100.00;102489.94;2055363;28;36870;-71
2022/12/17 14:58:12;;;;;;;128.45;38.80;;;;;;;-3.57;100.00;102488.97;2045622;28;38669;-70
2022/12/17 14:59:37;;;;;;;121.05;38.67;;;;;;;-3.53;100.00;102484.81;2047998;28;22585;-71
2022/12/17 15:00:42;;;;;;;125.75;36.63;;;;;;;-3.53;100.00;102483.09;2054244;28;39032;-71
2022/12/17 15:01:46;;;;;;;121.60;38.08;;;;;;;-3.53;100.00;102484.81;2055380;28;27307;-69
2022/12/17 15:02:53;;;;;;;122.35;38.60;;;;;;;-3.54;100.00;102486.50;2055003;28;38788;-70
2022/12/17 15:03:56;;;;;;;114.28;35.67;;;;;;;-3.53;100.00;102490.94;2045192;28;37794;-67
2022/12/17 15:05:01;;;;;;;126.32;38.78;;;;;;;-3.51;100.00;102497.16;2044726;28;41492;-71
2022/12/17 15:06:07;;;;;;;122.40;38.90;;;;;;;-3.55;100.00;102494.25;2047032;28;38057;-71
2022/12/17 15:07:13;;;;;;;119.43;38.40;;;;;;;-3.55;100.00;102497.81;2050604;28;42156;-70
2022/12/17 15:08:21;;;;;;;128.35;38.97;;;;;;;-3.54;100.00;102489.13;2041533;28;20048;-70
2022/12/17 15:09:24;;;;;;;133.43;38.45;;;;;;;-3.54;100.00;102494.34;2048327;28;41034;-70
2022/12/17 15:10:26;;;;;;;130.30;38.08;;;;;;;-3.53;100.00;102492.66;2055061;28;20047;-70
2022/12/17 15:11:28;;;;;;;131.85;38.25;;;;;;;-3.55;100.00;102497.81;2055394;28;37389;-69
2022/12/17 15:12:34;;;;;;;135.75;38.72;;;;;;;-3.57;100.00;102488.97;2054360;28;34340;-70
2022/12/17 15:13:36;;;;;;;127.60;38.15;;;;;;;-3.56;100.00;102497.72;2056234;28;20044;-70
2022/12/17 15:14:37;;;;;;;123.25;38.38;;;;;;;-3.60;100.00;102487.88;2055311;28;36907;-70
2022/12/17 15:15:39;;;;;;;137.60;40.22;;;;;;;-3.62;100.00;102492.09;2054610;28;35808;-69
2022/12/17 15:16:42;;;;;;;125.00;38.63;;;;;;;-3.64;100.00;102492.03;2055098;28;20055;-69
2022/12/17 15:17:48;;;;;;;118.80;40.05;;;;;;;-3.64;100.00;102499.88;2055792;28;21036;-70
2022/12/17 15:18:50;;;;;;;132.48;40.10;;;;;;;-3.65;100.00;102490.19;2055671;28;25997;-69
2022/12/17 15:19:51;;;;;;;120.90;38.72;;;;;;;-3.64;100.00;102497.25;2053935;28;37679;-72
2022/12/17 15:20:56;;;;;;;116.03;39.35;;;;;;;-3.66;100.00;102489.31;2054681;28;41270;-70
2022/12/17 15:21:58;;;;;;;126.20;41.25;;;;;;;-3.66;100.00;102494.53;2055465;28;21464;-71
2022/12/17 15:23:00;;;;;;;130.57;38.65;;;;;;;-3.65;100.00;102498.06;2055423;28;34337;-71
2022/12/17 15:24:05;;;;;;;124.03;38.85;;;;;;;-3.67;100.00;102497.97;2056704;28;39166;-71
2022/12/17 15:25:15;;;;;;;120.68;37.33;;;;;;;-3.66;100.00;102504.09;2056938;28;20035;-70
2022/12/17 15:26:18;;;;;;;95.70;28.25;;;;;;;-3.68;100.00;102492.63;2056376;28;37424;-70
2022/12/17 15:27:20;;;;;;;127.90;38.03;;;;;;;-3.69;100.00;102499.59;2056292;28;36528;-70
2022/12/17 15:28:22;;;;;;;121.75;37.83;;;;;;;-3.68;100.00;102497.88;2056350;28;37599;-70
2022/12/17 15:29:24;;;;;;;118.78;37.90;;;;;;;-3.69;100.00;102494.34;2055948;28;40167;-70
2022/12/17 15:30:26;;;;;;;121.65;39.70;;;;;;;-3.70;100.00;102500.38;2057649;28;20726;-70
2022/12/17 15:31:28;;;;;;;121.13;38.20;;;;;;;-3.71;100.00;102497.69;2056111;28;37070;-70
2022/12/17 15:32:35;;;;;;;127.03;39.50;;;;;;;-3.73;100.00;102494.06;2056587;28;38022;-70
2022/12/17 15:33:37;;;;;;;127.60;39.42;;;;;;;-3.72;100.00;102498.50;2056287;28;39070;-70
2022/12/17 15:34:39;;;;;;;124.55;38.75;;;;;;;-3.70;100.00;102494.25;2056092;28;42041;-70
2022/12/17 15:35:41;;;;;;;126.53;39.00;;;;;;;-3.71;100.00;102485.50;2055602;28;21599;-70
2022/12/17 15:36:43;;;;;;;134.13;40.15;;;;;;;-3.71;100.00;102495.97;2057317;28;20051;-70
2022/12/17 15:37:45;;;;;;;122.65;39.17;;;;;;;-3.72;100.00;102498.50;2055974;28;40428;-70
2022/12/17 15:38:46;;;;;;;124.10;41.00;;;;;;;-3.71;100.00;102508.16;2056527;28;27064;-70
2022/12/17 15:39:49;;;;;;;134.73;40.60;;;;;;;-3.71;100.00;102508.16;2056544;28;20837;-70
2022/12/17 15:40:51;;;;;;;130.57;40.58;;;;;;;-3.70;100.00;102512.56;2056483;28;36673;-70
2022/12/17 15:43:14;;;;;;;132.00;40.88;;;;;;;-3.69;100.00;102504.81;2056405;28;40142;-71
2022/12/17 15:44:16;;;;;;;152.95;45.55;;;;;;;-3.71;100.00;102510.78;2047791;28;37744;-68
2022/12/17 15:45:25;;;;;;;125.90;38.55;;;;;;;-3.73;100.00;102518.53;2048340;28;36589;-71
2022/12/17 15:46:28;;;;;;;124.05;38.70;;;;;;;-3.72;100.00;102519.44;2056591;28;40000;-71
2022/12/17 15:47:30;;;;;;;139.05;40.90;;;;;;;-3.73;100.00;102508.06;2056163;28;41382;-70
2022/12/17 15:48:32;;;;;;;136.00;40.95;;;;;;;-3.75;100.00;102514.94;2056252;28;38346;-71
2022/12/17 15:49:33;;;;;;;130.18;40.42;;;;;;;-3.74;100.00;102513.22;2055871;28;35647;-71
2022/12/17 15:50:36;;;;;;;128.90;39.13;;;;;;;-3.77;100.00;102519.16;2056374;28;20086;-71
2022/12/17 15:51:38;;;;;;;122.05;37.78;;;;;;;-3.79;100.00;102514.63;2056330;28;38819;-71
2022/12/17 15:52:39;;;;;;;128.30;37.97;;;;;;;-3.80;100.00;102516.38;2056023;28;36760;-71
2022/12/17 15:53:43;;;;;;;123.15;36.83;;;;;;;-3.82;100.00;102515.38;2056106;28;37385;-71
2022/12/17 15:54:46;;;;;;;125.93;37.58;;;;;;;-3.83;100.00;102508.31;2056047;28;39429;-71
2022/12/17 15:55:48;;;;;;;120.00;38.25;;;;;;;-3.85;100.00;102510.84;2055584;28;37978;-71
2022/12/17 15:56:54;;;;;;;121.53;37.20;;;;;;;-3.83;100.00;102510.94;2056073;28;39375;-71
2022/12/17 15:57:58;;;;;;;118.75;38.08;;;;;;;-3.85;100.00;102507.31;2055957;28;37430;-71
2022/12/17 15:59:00;;;;;;;114.22;37.75;;;;;;;-3.85;100.00;102517.78;2055912;28;40430;-71
2022/12/17 16:00:02;;;;;;;108.32;35.03;;;;;;;-3.87;100.00;102514.19;2056071;28;38730;-70
2022/12/17 16:01:06;;;;;;;116.70;35.97;;;;;;;-3.86;100.00;102506.44;2056785;28;20047;-71
2022/12/17 16:02:09;;;;;;;126.40;37.28;;;;;;;-3.87;100.00;102515.06;2056143;28;37222;-71
2022/12/17 16:03:11;;;;;;;115.75;35.75;;;;;;;-3.86;100.00;102513.34;2055727;28;38941;-71
2022/12/17 16:04:13;;;;;;;122.10;38.92;;;;;;;-3.86;100.00;102510.75;2048296;28;20050;-71
2022/12/17 16:05:24;;;;;;;115.95;36.72;;;;;;;-3.87;100.00;102515.06;2049037;28;38041;-71
2022/12/17 16:06:26;;;;;;;125.05;37.88;;;;;;;-3.85;100.00;102517.78;2055736;28;38678;-70
2022/12/17 16:07:28;;;;;;;120.72;39.75;;;;;;;-3.84;100.00;102514.34;2047478;28;39362;-71
2022/12/17 16:08:29;;;;;;;123.20;39.00;;;;;;;-3.86;100.00;102511.66;2046671;28;39088;-71
2022/12/17 16:09:31;;;;;;;124.32;38.22;;;;;;;-3.89;100.00;102514.09;2055842;28;40651;-71
2022/12/17 16:10:32;;;;;;;120.85;38.70;;;;;;;-3.86;100.00;102511.66;2056353;28;34879;-70
2022/12/17 16:11:34;;;;;;;128.85;37.67;;;;;;;-3.86;100.00;102513.34;2055764;28;38610;-71
2022/12/17 16:12:36;;;;;;;128.45;38.20;;;;;;;-3.86;100.00;102519.50;2055967;28;35945;-71
2022/12/17 16:13:41;;;;;;;120.75;38.47;;;;;;;-3.87;100.00;102519.41;2056935;28;20861;-71
2022/12/17 16:14:46;;;;;;;111.15;35.63;;;;;;;-3.89;100.00;102516.69;2056053;28;38279;-71
2022/12/17 16:15:57;;;;;;;117.10;36.55;;;;;;;-3.91;100.00;102513.09;2056179;28;36720;-71
2022/12/17 16:17:04;;;;;;;119.82;35.35;;;;;;;-3.91;100.00;102522.63;2055326;28;40595;-70
2022/12/17 16:18:06;;;;;;;118.13;36.45;;;;;;;-3.96;100.00;102514.50;2056684;28;20076;-71
2022/12/17 16:19:08;;;;;;;113.00;35.33;;;;;;;-3.97;100.00;102517.03;2056775;28;20102;-71
2022/12/17 16:20:10;;;;;;;111.60;35.72;;;;;;;-3.99;100.00;102523.88;2056749;28;21176;-71
2022/12/17 16:21:12;;;;;;;119.72;36.13;;;;;;;-3.98;100.00;102524.00;2056156;28;36527;-71
2022/12/17 16:22:13;;;;;;;115.78;36.33;;;;;;;-3.99;100.00;102514.31;2056515;28;34915;-71
2022/12/17 16:23:15;;;;;;;111.32;34.53;;;;;;;-3.97;100.00;102517.94;2055909;28;38879;-71
2022/12/17 16:24:17;;;;;;;125.40;37.17;;;;;;;-3.95;100.00;102524.16;2056335;28;37324;-71
2022/12/17 16:25:21;;;;;;;114.18;37.17;;;;;;;-3.96;100.00;102518.84;2055945;28;34903;-71
2022/12/17 16:26:23;;;;;;;113.70;34.22;;;;;;;-3.96;100.00;102524.09;2056067;28;38922;-71
2022/12/17 16:27:24;;;;;;;113.22;35.80;;;;;;;-3.96;100.00;102526.69;2047261;28;37297;-71
2022/12/17 16:28:27;;;;;;;116.80;36.47;;;;;;;-3.97;100.00;102525.78;2048375;28;20039;-71
2022/12/17 16:29:29;;;;;;;113.88;35.72;;;;;;;-4.00;100.00;102532.53;2055701;28;40110;-71
2022/12/17 16:30:30;;;;;;;107.28;35.78;;;;;;;-4.01;100.00;102526.41;2055769;28;37690;-70
2022/12/17 16:31:32;;;;;;;120.25;36.85;;;;;;;-4.01;100.00;102536.88;2056605;28;20039;-71
2022/12/17 16:32:34;;;;;;;104.78;34.03;;;;;;;-4.00;100.00;102533.47;2055879;28;42281;-70
2022/12/17 16:33:40;;;;;;;107.18;35.40;;;;;;;-4.00;100.00;102530.84;2055947;28;37336;-71
2022/12/17 16:34:43;;;;;;;106.10;33.95;;;;;;;-4.04;100.00;102521.91;2056260;28;32875;-71
2022/12/17 16:35:51;;;;;;;106.30;34.65;;;;;;;-4.08;100.00;102519.88;2055504;28;42626;-71
2022/12/17 16:36:52;;;;;;;107.15;34.00;;;;;;;-4.05;100.00;102520.06;2047763;28;39953;-71
2022/12/17 16:37:54;;;;;;;102.03;33.47;;;;;;;-4.06;100.00;102520.88;2047955;28;36962;-71
2022/12/17 16:38:56;;;;;;;113.00;35.45;;;;;;;-4.07;100.00;102520.81;2055746;28;38670;-70
2022/12/17 16:39:58;;;;;;;121.97;35.97;;;;;;;-4.04;100.00;102515.75;2055979;28;37871;-71
2022/12/17 16:41:02;;;;;;;107.82;35.53;;;;;;;-4.09;100.00;102512.84;2056087;28;38653;-70
2022/12/17 16:42:06;;;;;;;121.93;38.47;;;;;;;-4.10;100.00;102511.03;2054991;28;34608;-71
2022/12/17 16:43:09;;;;;;;114.85;35.28;;;;;;;-4.07;100.00;102512.97;2054884;28;35625;-71
2022/12/17 16:44:10;;;;;;;121.93;37.40;;;;;;;-4.07;100.00;102518.19;2047639;28;38526;-71
2022/12/17 16:45:12;;;;;;;121.40;37.35;;;;;;;-4.08;100.00;102513.75;2057018;28;20905;-71
2022/12/17 16:46:37;;;;;;;115.78;37.53;;;;;;;-4.08;100.00;102513.75;2055657;28;40053;-71
2022/12/17 16:47:41;;;;;;;111.18;36.22;;;;;;;-4.07;100.00;102511.25;2055975;28;24339;-71
2022/12/17 16:48:43;;;;;;;114.80;37.03;;;;;;;-4.09;100.00;102518.09;2055228;28;36561;-69
2022/12/17 16:49:44;;;;;;;117.82;36.67;;;;;;;-4.10;100.00;102529.34;2055926;28;41324;-71
2022/12/17 16:50:47;;;;;;;120.07;38.45;;;;;;;-4.08;100.00;102527.72;2055742;28;39092;-69
2022/12/17 16:51:51;;;;;;;124.75;40.00;;;;;;;-4.11;100.00;102524.00;2047342;28;36119;-70
2022/12/17 16:52:55;;;;;;;125.50;37.85;;;;;;;-4.13;100.00;102530.88;2039790;28;43211;-70
2022/12/17 16:53:57;;;;;;;111.80;35.28;;;;;;;-4.13;100.00;102530.88;2048098;28;36860;-71
2022/12/17 16:54:59;;;;;;;117.15;36.55;;;;;;;-4.16;100.00;102535.91;2055704;28;39834;-71
2022/12/17 16:56:00;;;;;;;115.85;37.20;;;;;;;-4.17;100.00;102534.09;2055607;28;39657;-71
2022/12/17 16:57:02;;;;;;;119.75;38.58;;;;;;;-4.21;100.00;102522.56;2056333;28;20129;-70
2022/12/17 16:58:05;;;;;;;109.07;37.15;;;;;;;-4.25;100.00;102518.84;2055653;28;42020;-70
2022/12/17 16:59:08;;;;;;;109.90;37.15;;;;;;;-4.27;100.00;102528.31;2055787;28;36992;-70
2022/12/17 17:00:10;;;;;;;108.78;36.15;;;;;;;-4.27;100.00;102523.06;2056226;28;36728;-71
2022/12/17 17:01:16;;;;;;;117.50;37.33;;;;;;;-4.26;100.00;102530.09;2055714;28;40825;-71
2022/12/17 17:02:18;;;;;;;123.30;36.13;;;;;;;-4.25;100.00;102529.28;2056294;28;39168;-71
2022/12/17 17:03:20;;;;;;;113.95;35.25;;;;;;;-4.25;100.00;102526.69;2055688;28;40926;-71
2022/12/17 17:04:22;;;;;;;115.60;37.35;;;;;;;-4.25;100.00;102533.63;2055674;28;37610;-71
2022/12/17 17:05:24;;;;;;;121.68;38.92;;;;;;;-4.24;100.00;102538.94;2056359;28;20042;-71
2022/12/17 17:06:26;;;;;;;114.05;38.15;;;;;;;-4.29;100.00;102532.53;2055094;28;40544;-71
2022/12/17 17:07:33;;;;;;;116.38;39.42;;;;;;;-4.23;100.00;102545.09;2054251;28;38793;-71
2022/12/17 17:08:37;;;;;;;124.88;38.63;;;;;;;-4.24;100.00;102541.53;2047805;28;37651;-71
2022/12/17 17:09:41;;;;;;;127.35;39.17;;;;;;;-4.26;100.00;102537.94;2046935;28;38126;-71
2022/12/17 17:10:46;;;;;;;122.25;38.42;;;;;;;-4.25;100.00;102542.38;2049152;28;20418;-71
2022/12/17 17:11:49;;;;;;;123.70;37.60;;;;;;;-4.24;100.00;102538.94;2046620;28;42006;-70
2022/12/17 17:12:53;;;;;;;126.57;38.75;;;;;;;-4.20;100.00;102544.38;2031967;29;32704;-71
2022/12/17 17:13:56;;;;;;;130.05;38.25;;;;;;;-4.21;100.00;102540.84;2040790;28;26902;-70
2022/12/17 17:14:58;;;;;;;124.53;39.45;;;;;;;-4.21;100.00;102538.25;2047365;28;35066;-70
2022/12/17 17:15:59;;;;;;;126.38;38.20;;;;;;;-4.23;100.00;102540.75;2047200;28;36761;-71
2022/12/17 17:17:01;;;;;;;121.78;40.20;;;;;;;-4.18;100.00;102545.34;2055217;28;40977;-70
2022/12/17 17:18:03;;;;;;;114.32;36.67;;;;;;;-4.19;100.00;102546.19;2055958;28;33966;-71
2022/12/17 17:19:05;;;;;;;125.82;39.10;;;;;;;-4.18;100.00;102545.34;2056579;28;20043;-70
2022/12/17 17:20:08;;;;;;;125.35;40.10;;;;;;;-4.20;100.00;102547.88;2047841;28;20044;-71
2022/12/17 17:21:19;;;;;;;117.25;37.35;;;;;;;-4.25;100.00;102547.59;2047714;28;39218;-71
2022/12/17 17:22:21;;;;;;;123.25;38.20;;;;;;;-4.27;100.00;102551.84;2056526;28;20047;-72
2022/12/17 17:23:23;;;;;;;119.13;38.40;;;;;;;-4.29;100.00;102549.91;2046367;28;41337;-70
2022/12/17 17:24:25;;;;;;;110.32;37.47;;;;;;;-4.29;100.00;102550.84;2047120;28;38099;-71
2022/12/17 17:25:27;;;;;;;115.18;38.30;;;;;;;-4.28;100.00;102551.72;2056029;28;22640;-71
2022/12/17 17:26:52;;;;;;;117.60;35.63;;;;;;;-4.34;100.00;102556.56;2056823;28;20126;-71
2022/12/17 17:27:54;;;;;;;115.00;36.45;;;;;;;-4.35;100.00;102562.59;2055260;28;37806;-71
2022/12/17 17:28:57;;;;;;;113.03;36.10;;;;;;;-4.35;100.00;102558.28;2046378;28;40918;-71
2022/12/17 17:29:58;;;;;;;124.05;37.95;;;;;;;-4.37;100.00;102559.91;2047040;28;35641;-71
2022/12/17 17:31:10;;;;;;;121.15;37.38;;;;;;;-4.40;100.00;102567.53;2056445;28;20158;-71
2022/12/17 17:32:12;;;;;;;121.60;36.53;;;;;;;-4.38;100.00;102568.53;2047696;28;21162;-72
2022/12/17 17:33:14;;;;;;;110.80;34.30;;;;;;;-4.38;100.00;102568.53;2047818;28;36550;-71
2022/12/17 17:34:19;;;;;;;112.00;35.15;;;;;;;-4.43;100.00;102568.25;2055153;28;42029;-71
2022/12/17 17:35:21;;;;;;;114.18;34.85;;;;;;;-4.44;100.00;102570.75;2056494;28;20039;-71
2022/12/17 17:36:26;;;;;;;111.18;36.55;;;;;;;-4.44;100.00;102569.03;2055308;28;39011;-71
2022/12/17 17:37:28;;;;;;;104.85;34.17;;;;;;;-4.47;100.00;102568.88;2056865;28;20043;-71
2022/12/17 17:38:32;;;;;;;108.28;35.75;;;;;;;-4.46;100.00;102561.91;2054917;28;40201;-71
2022/12/17 17:39:34;;;;;;;105.03;34.70;;;;;;;-4.46;100.00;102562.81;2047077;28;37311;-70
2022/12/17 17:40:36;;;;;;;104.57;34.03;;;;;;;-4.50;100.00;102562.53;2047036;28;36396;-71
2022/12/17 17:41:38;;;;;;;99.40;32.28;;;;;;;-4.56;100.00;102562.13;2055569;28;41587;-71
2022/12/17 17:42:40;;;;;;;106.10;33.45;;;;;;;-4.51;100.00;102558.09;2054994;28;41820;-72
2022/12/17 17:43:42;;;;;;;104.75;34.38;;;;;;;-4.52;100.00;102566.72;2055158;28;37005;-71
2022/12/17 17:44:43;;;;;;;105.75;33.25;;;;;;;-4.53;100.00;102568.44;2055360;28;40295;-71
2022/12/17 17:45:47;;;;;;;102.10;34.50;;;;;;;-4.53;100.00;102565.84;2056814;28;20035;-71
2022/12/17 17:46:49;;;;;;;108.35;33.42;;;;;;;-4.52;100.00;102571.97;2055494;28;35557;-70
2022/12/17 17:47:50;;;;;;;102.30;34.28;;;;;;;-4.54;100.00;102571.88;2055703;28;39782;-71
2022/12/17 17:48:56;;;;;;;110.28;34.65;;;;;;;-4.57;100.00;102568.16;2046687;28;39499;-71
2022/12/17 17:49:57;;;;;;;102.43;32.40;;;;;;;-4.59;100.00;102568.06;2047805;28;38054;-72
2022/12/17 17:51:06;;;;;;;102.00;33.58;;;;;;;-4.56;100.00;102583.03;2046549;28;37436;-71
2022/12/17 17:52:07;;;;;;;114.25;34.78;;;;;;;-4.58;100.00;102575.09;2039641;28;36919;-72
2022/12/17 17:53:11;;;;;;;99.68;33.85;;;;;;;-4.58;100.00;102576.81;2048077;28;20142;-71
2022/12/17 17:54:12;;;;;;;102.47;31.20;;;;;;;-4.61;100.00;102583.66;2055848;28;38044;-71
2022/12/17 17:55:15;;;;;;;110.20;33.30;;;;;;;-4.62;100.00;102581.81;2055200;28;35733;-71
2022/12/17 17:56:26;;;;;;;113.22;33.35;;;;;;;-4.63;100.00;102590.50;2055417;28;37115;-71
2022/12/17 17:57:28;;;;;;;104.70;32.70;;;;;;;-4.64;100.00;102587.75;2055539;28;35672;-71
2022/12/17 17:58:29;;;;;;;104.50;32.22;;;;;;;-4.67;100.00;102590.16;2054997;28;39577;-71
2022/12/17 17:59:31;;;;;;;101.28;32.30;;;;;;;-4.67;100.00;102590.16;2055223;28;34784;-71
2022/12/17 18:00:36;;;;;;;98.63;31.90;;;;;;;-4.65;100.00;102592.09;2055667;28;36803;-72
2022/12/17 18:01:43;;;;;;;104.32;30.55;;;;;;;-4.64;100.00;102593.00;2047653;28;20054;-71
2022/12/17 18:02:45;;;;;;;98.40;31.67;;;;;;;-4.67;100.00;102591.06;2048537;28;20825;-71
2022/12/17 18:03:47;;;;;;;108.47;32.28;;;;;;;-4.69;100.00;102583.94;2055358;28;40585;-71
2022/12/17 18:04:49;;;;;;;113.10;33.67;;;;;;;-4.69;100.00;102586.56;2055518;28;39396;-71
2022/12/17 18:05:51;;;;;;;101.63;31.80;;;;;;;-4.68;100.00;102591.88;2055937;28;36089;-70
2022/12/17 18:06:55;;;;;;;107.78;33.25;;;;;;;-4.68;100.00;102586.66;2055660;28;38131;-71